sensor_id;sensor_type;location;lat;lon;timestamp;temperature;humidity
25753;DHT22;13600;50.816;4.416;2024-01-25T00:02:17;10.20;99.90
25753;DHT22;13600;50.816;4.416;2024-01-25T00:04:43;10.20;99.90
25753;DHT22;13600;50.816;4.416;2024-01-25T00:07:08;10.20;99.90
25753;DHT22;13600;50.816;4.416;2024-01-25T00:09:35;10.20;99.90
25753;DHT22;13600;50.816;4.416;2024-01-25T00:12:01;10.10;99.90
25753;DHT22;13600;50.816;4.416;2024-01-25T00:14:26;10.10;99.90
25753;DHT22;13600;50.816;4.416;2024-01-25T00:16:52;10.10;99.90
25753;DHT22;13600;50.816;4.416;2024-01-25T00:19:17;10.00;99.90
25753;DHT22;13600;50.816;4.416;2024-01-25T00:21:43;9.90;99.90
25753;DHT22;13600;50.816;4.416;2024-01-25T00:24:12;9.90;99.90
25753;DHT22;13600;50.816;4.416;2024-01-25T00:26:37;9.90;99.90
25753;DHT22;13600;50.816;4.416;2024-01-25T00:29:04;10.00;99.90
25753;DHT22;13600;50.816;4.416;2024-01-25T00:31:31;9.90;99.90
25753;DHT22;13600;50.816;4.416;2024-01-25T00:34:00;9.80;99.90
25753;DHT22;13600;50.816;4.416;2024-01-25T00:36:27;9.80;99.90
25753;DHT22;13600;50.816;4.416;2024-01-25T00:38:53;9.80;99.90
25753;DHT22;13600;50.816;4.416;2024-01-25T00:41:19;9.80;99.90
25753;DHT22;13600;50.816;4.416;2024-01-25T00:43:45;9.70;99.90
25753;DHT22;13600;50.816;4.416;2024-01-25T00:46:11;9.60;99.90
25753;DHT22;13600;50.816;4.416;2024-01-25T00:48:37;9.50;99.90
25753;DHT22;13600;50.816;4.416;2024-01-25T00:51:07;9.60;99.90
25753;DHT22;13600;50.816;4.416;2024-01-25T00:53:33;9.60;99.90
25753;DHT22;13600;50.816;4.416;2024-01-25T00:55:59;9.70;99.90
25753;DHT22;13600;50.816;4.416;2024-01-25T00:58:26;9.70;99.90
25753;DHT22;13600;50.816;4.416;2024-01-25T01:00:52;9.60;99.90
25753;DHT22;13600;50.816;4.416;2024-01-25T01:03:19;9.50;99.90
25753;DHT22;13600;50.816;4.416;2024-01-25T01:05:45;9.60;99.90
25753;DHT22;13600;50.816;4.416;2024-01-25T01:08:11;9.60;99.90
25753;DHT22;13600;50.816;4.416;2024-01-25T01:10:37;9.50;99.90
25753;DHT22;13600;50.816;4.416;2024-01-25T01:13:03;9.50;99.90
25753;DHT22;13600;50.816;4.416;2024-01-25T01:15:29;9.40;99.90
25753;DHT22;13600;50.816;4.416;2024-01-25T01:17:55;9.60;99.90
25753;DHT22;13600;50.816;4.416;2024-01-25T01:20:20;9.60;99.90
25753;DHT22;13600;50.816;4.416;2024-01-25T01:22:46;9.60;99.90
25753;DHT22;13600;50.816;4.416;2024-01-25T01:25:12;9.60;99.90
25753;DHT22;13600;50.816;4.416;2024-01-25T01:27:37;9.70;99.90
25753;DHT22;13600;50.816;4.416;2024-01-25T01:30:03;9.70;99.90
25753;DHT22;13600;50.816;4.416;2024-01-25T01:32:29;9.60;99.90
25753;DHT22;13600;50.816;4.416;2024-01-25T01:34:55;9.70;99.90
25753;DHT22;13600;50.816;4.416;2024-01-25T01:37:20;9.60;99.90
25753;DHT22;13600;50.816;4.416;2024-01-25T01:39:46;9.60;99.90
25753;DHT22;13600;50.816;4.416;2024-01-25T01:42:12;9.60;99.90
25753;DHT22;13600;50.816;4.416;2024-01-25T01:44:38;9.60;99.90
25753;DHT22;13600;50.816;4.416;2024-01-25T01:47:04;9.60;99.90
25753;DHT22;13600;50.816;4.416;2024-01-25T01:49:30;9.60;99.90
25753;DHT22;13600;50.816;4.416;2024-01-25T01:51:56;9.50;99.90
25753;DHT22;13600;50.816;4.416;2024-01-25T01:54:22;9.40;99.90
25753;DHT22;13600;50.816;4.416;2024-01-25T01:56:48;9.40;99.90
25753;DHT22;13600;50.816;4.416;2024-01-25T01:59:15;9.40;99.90
25753;DHT22;13600;50.816;4.416;2024-01-25T02:01:41;9.30;99.90
25753;DHT22;13600;50.816;4.416;2024-01-25T02:04:07;9.30;99.90
25753;DHT22;13600;50.816;4.416;2024-01-25T02:06:34;9.40;99.90
25753;DHT22;13600;50.816;4.416;2024-01-25T02:09:00;9.40;99.90
25753;DHT22;13600;50.816;4.416;2024-01-25T02:11:26;9.30;99.90
25753;DHT22;13600;50.816;4.416;2024-01-25T02:13:52;9.40;99.90
25753;DHT22;13600;50.816;4.416;2024-01-25T02:16:17;9.40;99.90
25753;DHT22;13600;50.816;4.416;2024-01-25T02:18:45;9.50;99.90
25753;DHT22;13600;50.816;4.416;2024-01-25T02:21:14;9.50;99.90
25753;DHT22;13600;50.816;4.416;2024-01-25T02:23:40;9.40;99.90
25753;DHT22;13600;50.816;4.416;2024-01-25T02:26:06;9.40;99.90
25753;DHT22;13600;50.816;4.416;2024-01-25T02:28:32;9.30;99.90
25753;DHT22;13600;50.816;4.416;2024-01-25T02:31:02;9.30;99.90
25753;DHT22;13600;50.816;4.416;2024-01-25T02:33:27;9.20;99.90
25753;DHT22;13600;50.816;4.416;2024-01-25T02:35:53;9.30;99.90
25753;DHT22;13600;50.816;4.416;2024-01-25T02:38:19;9.20;99.90
25753;DHT22;13600;50.816;4.416;2024-01-25T02:40:44;9.10;99.90
25753;DHT22;13600;50.816;4.416;2024-01-25T02:43:10;9.10;99.90
25753;DHT22;13600;50.816;4.416;2024-01-25T02:45:36;9.10;99.90
25753;DHT22;13600;50.816;4.416;2024-01-25T02:48:01;9.20;99.90
25753;DHT22;13600;50.816;4.416;2024-01-25T02:50:30;9.20;99.90
25753;DHT22;13600;50.816;4.416;2024-01-25T02:52:56;9.20;99.90
25753;DHT22;13600;50.816;4.416;2024-01-25T02:55:22;9.20;99.90
25753;DHT22;13600;50.816;4.416;2024-01-25T02:57:47;9.20;99.90
25753;DHT22;13600;50.816;4.416;2024-01-25T03:00:13;9.10;99.90
25753;DHT22;13600;50.816;4.416;2024-01-25T03:02:39;9.00;99.90
25753;DHT22;13600;50.816;4.416;2024-01-25T03:05:05;9.00;99.90
25753;DHT22;13600;50.816;4.416;2024-01-25T03:07:30;9.00;99.90
25753;DHT22;13600;50.816;4.416;2024-01-25T03:09:56;9.10;99.90
25753;DHT22;13600;50.816;4.416;2024-01-25T03:12:22;9.10;99.90
25753;DHT22;13600;50.816;4.416;2024-01-25T03:14:48;9.10;99.90
25753;DHT22;13600;50.816;4.416;2024-01-25T03:17:14;8.90;99.90
25753;DHT22;13600;50.816;4.416;2024-01-25T03:19:39;9.00;99.90
25753;DHT22;13600;50.816;4.416;2024-01-25T03:22:05;9.10;99.90
25753;DHT22;13600;50.816;4.416;2024-01-25T03:24:31;9.00;99.90
25753;DHT22;13600;50.816;4.416;2024-01-25T03:26:58;8.90;99.90
25753;DHT22;13600;50.816;4.416;2024-01-25T03:29:24;8.80;99.90
25753;DHT22;13600;50.816;4.416;2024-01-25T03:31:50;8.80;99.90
25753;DHT22;13600;50.816;4.416;2024-01-25T03:34:15;8.90;99.90
25753;DHT22;13600;50.816;4.416;2024-01-25T03:36:41;9.00;99.90
25753;DHT22;13600;50.816;4.416;2024-01-25T03:39:07;9.10;99.90
25753;DHT22;13600;50.816;4.416;2024-01-25T03:41:32;8.80;99.90
25753;DHT22;13600;50.816;4.416;2024-01-25T03:43:59;8.70;99.90
25753;DHT22;13600;50.816;4.416;2024-01-25T03:46:25;8.70;99.90
25753;DHT22;13600;50.816;4.416;2024-01-25T03:48:50;8.80;99.90
25753;DHT22;13600;50.816;4.416;2024-01-25T03:51:16;8.80;99.90
25753;DHT22;13600;50.816;4.416;2024-01-25T03:53:42;8.70;99.90
25753;DHT22;13600;50.816;4.416;2024-01-25T03:56:12;8.70;99.90
25753;DHT22;13600;50.816;4.416;2024-01-25T03:58:38;8.60;99.90
25753;DHT22;13600;50.816;4.416;2024-01-25T04:01:04;8.80;99.90
25753;DHT22;13600;50.816;4.416;2024-01-25T04:03:29;9.10;99.90
25753;DHT22;13600;50.816;4.416;2024-01-25T04:05:55;8.90;99.90
25753;DHT22;13600;50.816;4.416;2024-01-25T04:08:21;8.80;99.90
25753;DHT22;13600;50.816;4.416;2024-01-25T04:10:46;8.80;99.90
25753;DHT22;13600;50.816;4.416;2024-01-25T04:13:12;8.80;99.90
25753;DHT22;13600;50.816;4.416;2024-01-25T04:15:38;8.80;99.90
25753;DHT22;13600;50.816;4.416;2024-01-25T04:18:03;8.60;99.90
25753;DHT22;13600;50.816;4.416;2024-01-25T04:20:29;8.60;99.90
25753;DHT22;13600;50.816;4.416;2024-01-25T04:22:55;8.40;99.90
25753;DHT22;13600;50.816;4.416;2024-01-25T04:25:22;8.50;99.90
25753;DHT22;13600;50.816;4.416;2024-01-25T04:27:48;8.60;99.90
25753;DHT22;13600;50.816;4.416;2024-01-25T04:30:14;8.70;99.90
25753;DHT22;13600;50.816;4.416;2024-01-25T04:32:40;8.70;99.90
25753;DHT22;13600;50.816;4.416;2024-01-25T04:35:06;8.40;99.90
25753;DHT22;13600;50.816;4.416;2024-01-25T04:37:33;8.20;99.90
25753;DHT22;13600;50.816;4.416;2024-01-25T04:39:59;8.10;99.90
25753;DHT22;13600;50.816;4.416;2024-01-25T04:42:24;8.30;99.90
25753;DHT22;13600;50.816;4.416;2024-01-25T04:44:50;8.40;99.90
25753;DHT22;13600;50.816;4.416;2024-01-25T04:47:16;8.50;99.90
25753;DHT22;13600;50.816;4.416;2024-01-25T04:49:41;8.60;99.90
25753;DHT22;13600;50.816;4.416;2024-01-25T04:52:07;8.70;99.90
25753;DHT22;13600;50.816;4.416;2024-01-25T04:54:34;8.50;99.90
25753;DHT22;13600;50.816;4.416;2024-01-25T04:57:00;8.50;99.90
25753;DHT22;13600;50.816;4.416;2024-01-25T04:59:27;8.40;99.90
25753;DHT22;13600;50.816;4.416;2024-01-25T05:01:52;8.30;99.90
25753;DHT22;13600;50.816;4.416;2024-01-25T05:04:20;8.00;99.90
25753;DHT22;13600;50.816;4.416;2024-01-25T05:06:46;7.90;99.90
25753;DHT22;13600;50.816;4.416;2024-01-25T05:09:11;8.10;99.90
25753;DHT22;13600;50.816;4.416;2024-01-25T05:11:40;8.20;99.90
25753;DHT22;13600;50.816;4.416;2024-01-25T05:14:06;8.20;99.90
25753;DHT22;13600;50.816;4.416;2024-01-25T05:16:32;8.00;99.90
25753;DHT22;13600;50.816;4.416;2024-01-25T05:18:58;7.90;99.90
25753;DHT22;13600;50.816;4.416;2024-01-25T05:21:24;8.00;99.90
25753;DHT22;13600;50.816;4.416;2024-01-25T05:23:49;8.20;99.90
25753;DHT22;13600;50.816;4.416;2024-01-25T05:26:15;8.20;99.90
25753;DHT22;13600;50.816;4.416;2024-01-25T05:28:41;8.30;99.90
25753;DHT22;13600;50.816;4.416;2024-01-25T05:31:07;8.00;99.90
25753;DHT22;13600;50.816;4.416;2024-01-25T05:33:39;7.90;99.90
25753;DHT22;13600;50.816;4.416;2024-01-25T05:36:05;7.80;99.90
25753;DHT22;13600;50.816;4.416;2024-01-25T05:38:31;7.80;99.90
25753;DHT22;13600;50.816;4.416;2024-01-25T05:40:58;7.90;99.90
25753;DHT22;13600;50.816;4.416;2024-01-25T05:43:23;7.90;99.90
25753;DHT22;13600;50.816;4.416;2024-01-25T05:45:49;7.70;99.90
25753;DHT22;13600;50.816;4.416;2024-01-25T05:48:15;7.90;99.90
25753;DHT22;13600;50.816;4.416;2024-01-25T05:50:41;8.00;99.90
25753;DHT22;13600;50.816;4.416;2024-01-25T05:53:06;8.10;99.90
25753;DHT22;13600;50.816;4.416;2024-01-25T05:55:32;8.20;99.90
25753;DHT22;13600;50.816;4.416;2024-01-25T05:57:58;8.30;99.90
25753;DHT22;13600;50.816;4.416;2024-01-25T06:00:23;8.30;99.90
25753;DHT22;13600;50.816;4.416;2024-01-25T06:02:49;8.30;99.90
25753;DHT22;13600;50.816;4.416;2024-01-25T06:05:15;8.40;99.90
25753;DHT22;13600;50.816;4.416;2024-01-25T06:07:40;8.30;99.90
25753;DHT22;13600;50.816;4.416;2024-01-25T06:10:07;8.00;99.90
25753;DHT22;13600;50.816;4.416;2024-01-25T06:12:39;7.90;99.90
25753;DHT22;13600;50.816;4.416;2024-01-25T06:15:06;7.60;99.90
25753;DHT22;13600;50.816;4.416;2024-01-25T06:17:32;7.60;99.90
25753;DHT22;13600;50.816;4.416;2024-01-25T06:19:58;7.60;99.90
25753;DHT22;13600;50.816;4.416;2024-01-25T06:22:24;7.80;99.90
25753;DHT22;13600;50.816;4.416;2024-01-25T06:24:49;8.00;99.90
25753;DHT22;13600;50.816;4.416;2024-01-25T06:27:15;8.00;99.90
25753;DHT22;13600;50.816;4.416;2024-01-25T06:29:41;8.00;99.90
25753;DHT22;13600;50.816;4.416;2024-01-25T06:32:06;8.00;99.90
25753;DHT22;13600;50.816;4.416;2024-01-25T06:34:32;8.10;99.90
25753;DHT22;13600;50.816;4.416;2024-01-25T06:36:58;8.10;99.90
25753;DHT22;13600;50.816;4.416;2024-01-25T06:39:23;8.20;99.90
25753;DHT22;13600;50.816;4.416;2024-01-25T06:41:49;8.20;99.90
25753;DHT22;13600;50.816;4.416;2024-01-25T06:44:15;8.20;99.90
25753;DHT22;13600;50.816;4.416;2024-01-25T06:46:41;8.20;99.90
25753;DHT22;13600;50.816;4.416;2024-01-25T06:49:13;7.90;99.90
25753;DHT22;13600;50.816;4.416;2024-01-25T06:51:39;7.80;99.90
25753;DHT22;13600;50.816;4.416;2024-01-25T06:54:06;7.80;99.90
25753;DHT22;13600;50.816;4.416;2024-01-25T06:56:34;7.60;99.90
25753;DHT22;13600;50.816;4.416;2024-01-25T06:59:00;7.70;99.90
25753;DHT22;13600;50.816;4.416;2024-01-25T07:01:25;7.90;99.90
25753;DHT22;13600;50.816;4.416;2024-01-25T07:03:53;8.10;99.90
25753;DHT22;13600;50.816;4.416;2024-01-25T07:06:19;8.30;99.90
25753;DHT22;13600;50.816;4.416;2024-01-25T07:08:45;8.20;99.90
25753;DHT22;13600;50.816;4.416;2024-01-25T07:11:11;8.10;99.90
25753;DHT22;13600;50.816;4.416;2024-01-25T07:13:37;8.00;99.90
25753;DHT22;13600;50.816;4.416;2024-01-25T07:16:03;8.10;99.90
25753;DHT22;13600;50.816;4.416;2024-01-25T07:18:29;8.10;99.90
25753;DHT22;13600;50.816;4.416;2024-01-25T07:20:54;8.30;99.90
25753;DHT22;13600;50.816;4.416;2024-01-25T07:23:21;8.30;99.90
25753;DHT22;13600;50.816;4.416;2024-01-25T07:25:47;8.50;99.90
25753;DHT22;13600;50.816;4.416;2024-01-25T07:28:13;8.50;99.90
25753;DHT22;13600;50.816;4.416;2024-01-25T07:30:38;8.50;99.90
25753;DHT22;13600;50.816;4.416;2024-01-25T07:33:04;8.60;99.90
25753;DHT22;13600;50.816;4.416;2024-01-25T07:35:31;8.80;99.90
25753;DHT22;13600;50.816;4.416;2024-01-25T07:37:57;8.80;99.90
25753;DHT22;13600;50.816;4.416;2024-01-25T07:40:23;8.90;99.90
25753;DHT22;13600;50.816;4.416;2024-01-25T07:42:48;9.00;99.90
25753;DHT22;13600;50.816;4.416;2024-01-25T07:45:14;8.90;99.90
25753;DHT22;13600;50.816;4.416;2024-01-25T07:47:43;8.70;99.90
25753;DHT22;13600;50.816;4.416;2024-01-25T07:50:09;8.70;99.90
25753;DHT22;13600;50.816;4.416;2024-01-25T07:52:35;8.80;99.90
25753;DHT22;13600;50.816;4.416;2024-01-25T07:55:01;8.90;99.90
25753;DHT22;13600;50.816;4.416;2024-01-25T07:57:26;8.90;99.90
25753;DHT22;13600;50.816;4.416;2024-01-25T07:59:52;8.90;99.90
25753;DHT22;13600;50.816;4.416;2024-01-25T08:02:17;8.80;99.90
25753;DHT22;13600;50.816;4.416;2024-01-25T08:04:45;8.70;99.90
25753;DHT22;13600;50.816;4.416;2024-01-25T08:07:11;8.70;99.90
25753;DHT22;13600;50.816;4.416;2024-01-25T08:09:36;8.70;99.90
25753;DHT22;13600;50.816;4.416;2024-01-25T08:12:02;8.70;99.90
25753;DHT22;13600;50.816;4.416;2024-01-25T08:14:28;8.70;99.90
25753;DHT22;13600;50.816;4.416;2024-01-25T08:16:53;8.80;99.90
25753;DHT22;13600;50.816;4.416;2024-01-25T08:19:20;8.80;99.90
25753;DHT22;13600;50.816;4.416;2024-01-25T08:21:46;8.90;99.90
25753;DHT22;13600;50.816;4.416;2024-01-25T08:24:12;8.90;99.90
25753;DHT22;13600;50.816;4.416;2024-01-25T08:26:38;8.90;99.90
25753;DHT22;13600;50.816;4.416;2024-01-25T08:29:04;8.90;99.90
25753;DHT22;13600;50.816;4.416;2024-01-25T08:31:30;9.00;99.90
25753;DHT22;13600;50.816;4.416;2024-01-25T08:33:56;9.00;99.90
25753;DHT22;13600;50.816;4.416;2024-01-25T08:36:22;9.00;99.90
25753;DHT22;13600;50.816;4.416;2024-01-25T08:38:48;9.20;99.90
25753;DHT22;13600;50.816;4.416;2024-01-25T08:41:14;9.30;99.90
25753;DHT22;13600;50.816;4.416;2024-01-25T08:43:41;9.30;99.90
25753;DHT22;13600;50.816;4.416;2024-01-25T08:46:07;9.30;99.90
25753;DHT22;13600;50.816;4.416;2024-01-25T08:48:34;9.40;99.90
25753;DHT22;13600;50.816;4.416;2024-01-25T08:51:01;9.50;99.90
25753;DHT22;13600;50.816;4.416;2024-01-25T08:53:27;9.40;99.90
25753;DHT22;13600;50.816;4.416;2024-01-25T08:55:54;9.30;99.90
25753;DHT22;13600;50.816;4.416;2024-01-25T08:58:20;9.20;99.90
25753;DHT22;13600;50.816;4.416;2024-01-25T09:00:46;9.40;99.90
25753;DHT22;13600;50.816;4.416;2024-01-25T09:03:15;9.40;99.90
25753;DHT22;13600;50.816;4.416;2024-01-25T09:05:40;9.40;99.90
25753;DHT22;13600;50.816;4.416;2024-01-25T09:08:11;9.40;99.90
25753;DHT22;13600;50.816;4.416;2024-01-25T09:10:37;9.50;99.90
25753;DHT22;13600;50.816;4.416;2024-01-25T09:13:03;9.60;99.90
25753;DHT22;13600;50.816;4.416;2024-01-25T09:15:28;9.70;99.90
25753;DHT22;13600;50.816;4.416;2024-01-25T09:17:54;9.60;99.90
25753;DHT22;13600;50.816;4.416;2024-01-25T09:20:19;9.70;99.90
25753;DHT22;13600;50.816;4.416;2024-01-25T09:22:45;9.70;99.90
25753;DHT22;13600;50.816;4.416;2024-01-25T09:25:12;9.80;99.90
25753;DHT22;13600;50.816;4.416;2024-01-25T09:27:37;9.90;99.90
25753;DHT22;13600;50.816;4.416;2024-01-25T09:30:07;9.90;99.90
25753;DHT22;13600;50.816;4.416;2024-01-25T09:32:33;9.90;99.90
25753;DHT22;13600;50.816;4.416;2024-01-25T09:34:59;10.00;99.90
25753;DHT22;13600;50.816;4.416;2024-01-25T09:37:25;10.10;99.90
25753;DHT22;13600;50.816;4.416;2024-01-25T09:39:51;10.20;99.90
25753;DHT22;13600;50.816;4.416;2024-01-25T09:42:19;10.30;99.90
25753;DHT22;13600;50.816;4.416;2024-01-25T09:44:45;10.30;99.90
25753;DHT22;13600;50.816;4.416;2024-01-25T09:47:11;10.50;99.90
25753;DHT22;13600;50.816;4.416;2024-01-25T09:49:37;10.60;99.90
25753;DHT22;13600;50.816;4.416;2024-01-25T09:52:04;10.60;99.90
25753;DHT22;13600;50.816;4.416;2024-01-25T09:54:34;10.60;99.90
25753;DHT22;13600;50.816;4.416;2024-01-25T09:57:14;10.60;99.90
25753;DHT22;13600;50.816;4.416;2024-01-25T09:59:43;10.80;99.90
25753;DHT22;13600;50.816;4.416;2024-01-25T10:02:09;10.90;99.90
25753;DHT22;13600;50.816;4.416;2024-01-25T10:04:37;11.00;99.90
25753;DHT22;13600;50.816;4.416;2024-01-25T10:07:03;11.20;99.90
25753;DHT22;13600;50.816;4.416;2024-01-25T10:09:41;11.30;99.90
25753;DHT22;13600;50.816;4.416;2024-01-25T10:12:07;11.30;99.90
25753;DHT22;13600;50.816;4.416;2024-01-25T10:14:34;11.20;99.90
25753;DHT22;13600;50.816;4.416;2024-01-25T10:17:00;11.10;99.90
25753;DHT22;13600;50.816;4.416;2024-01-25T10:19:26;11.00;99.90
25753;DHT22;13600;50.816;4.416;2024-01-25T10:21:53;11.00;99.90
25753;DHT22;13600;50.816;4.416;2024-01-25T10:24:18;11.00;99.90
25753;DHT22;13600;50.816;4.416;2024-01-25T10:26:44;10.90;99.90
25753;DHT22;13600;50.816;4.416;2024-01-25T10:29:10;10.90;99.90
25753;DHT22;13600;50.816;4.416;2024-01-25T10:31:39;11.00;99.90
25753;DHT22;13600;50.816;4.416;2024-01-25T10:34:11;10.90;99.90
25753;DHT22;13600;50.816;4.416;2024-01-25T10:36:38;10.80;99.90
25753;DHT22;13600;50.816;4.416;2024-01-25T10:39:07;11.00;99.90
25753;DHT22;13600;50.816;4.416;2024-01-25T10:41:34;11.10;99.90
25753;DHT22;13600;50.816;4.416;2024-01-25T10:44:00;11.20;99.90
25753;DHT22;13600;50.816;4.416;2024-01-25T10:46:29;11.30;99.90
25753;DHT22;13600;50.816;4.416;2024-01-25T10:48:57;11.30;99.90
25753;DHT22;13600;50.816;4.416;2024-01-25T10:51:24;11.30;99.90
25753;DHT22;13600;50.816;4.416;2024-01-25T10:53:50;11.30;99.90
25753;DHT22;13600;50.816;4.416;2024-01-25T10:56:16;11.30;99.90
25753;DHT22;13600;50.816;4.416;2024-01-25T10:58:43;11.20;99.90
25753;DHT22;13600;50.816;4.416;2024-01-25T11:01:11;11.20;99.90
25753;DHT22;13600;50.816;4.416;2024-01-25T11:03:39;11.20;99.90
25753;DHT22;13600;50.816;4.416;2024-01-25T11:06:10;11.30;99.90
25753;DHT22;13600;50.816;4.416;2024-01-25T11:08:37;11.30;99.90
25753;DHT22;13600;50.816;4.416;2024-01-25T11:11:07;11.30;99.90
25753;DHT22;13600;50.816;4.416;2024-01-25T11:13:34;11.20;99.90
25753;DHT22;13600;50.816;4.416;2024-01-25T11:16:30;11.30;99.90
25753;DHT22;13600;50.816;4.416;2024-01-25T11:19:00;11.40;99.90
25753;DHT22;13600;50.816;4.416;2024-01-25T11:21:42;11.30;99.90
25753;DHT22;13600;50.816;4.416;2024-01-25T11:24:17;11.50;99.90
25753;DHT22;13600;50.816;4.416;2024-01-25T11:26:45;11.50;99.90
25753;DHT22;13600;50.816;4.416;2024-01-25T11:29:18;11.60;99.90
25753;DHT22;13600;50.816;4.416;2024-01-25T11:31:47;11.50;99.90
25753;DHT22;13600;50.816;4.416;2024-01-25T11:34:13;11.60;99.90
25753;DHT22;13600;50.816;4.416;2024-01-25T11:36:40;11.90;99.90
25753;DHT22;13600;50.816;4.416;2024-01-25T11:39:05;11.90;99.90
25753;DHT22;13600;50.816;4.416;2024-01-25T11:41:32;11.90;99.90
25753;DHT22;13600;50.816;4.416;2024-01-25T11:43:58;11.90;99.90
25753;DHT22;13600;50.816;4.416;2024-01-25T11:46:25;11.80;99.90
25753;DHT22;13600;50.816;4.416;2024-01-25T11:48:51;11.80;99.90
25753;DHT22;13600;50.816;4.416;2024-01-25T11:51:17;11.90;99.90
25753;DHT22;13600;50.816;4.416;2024-01-25T11:53:42;11.70;99.90
25753;DHT22;13600;50.816;4.416;2024-01-25T11:56:14;11.70;99.90
25753;DHT22;13600;50.816;4.416;2024-01-25T11:58:42;11.60;99.90
25753;DHT22;13600;50.816;4.416;2024-01-25T12:01:08;11.60;99.90
25753;DHT22;13600;50.816;4.416;2024-01-25T12:03:35;11.60;99.90
25753;DHT22;13600;50.816;4.416;2024-01-25T12:06:05;11.70;99.90
25753;DHT22;13600;50.816;4.416;2024-01-25T12:08:34;11.60;99.90
25753;DHT22;13600;50.816;4.416;2024-01-25T12:11:10;11.70;99.90
25753;DHT22;13600;50.816;4.416;2024-01-25T12:13:39;11.70;99.90
25753;DHT22;13600;50.816;4.416;2024-01-25T12:16:06;11.70;99.90
25753;DHT22;13600;50.816;4.416;2024-01-25T12:18:32;11.70;99.90
25753;DHT22;13600;50.816;4.416;2024-01-25T12:21:00;11.80;99.90
25753;DHT22;13600;50.816;4.416;2024-01-25T12:23:37;11.70;99.90
25753;DHT22;13600;50.816;4.416;2024-01-25T12:26:08;11.80;99.90
25753;DHT22;13600;50.816;4.416;2024-01-25T12:28:34;11.90;99.90
25753;DHT22;13600;50.816;4.416;2024-01-25T12:31:01;11.90;99.90
25753;DHT22;13600;50.816;4.416;2024-01-25T12:33:29;11.90;99.90
25753;DHT22;13600;50.816;4.416;2024-01-25T12:35:54;11.80;99.90
25753;DHT22;13600;50.816;4.416;2024-01-25T12:38:21;11.80;99.90
25753;DHT22;13600;50.816;4.416;2024-01-25T12:40:49;11.70;99.90
25753;DHT22;13600;50.816;4.416;2024-01-25T12:43:16;11.50;99.90
25753;DHT22;13600;50.816;4.416;2024-01-25T12:45:42;11.50;99.90
25753;DHT22;13600;50.816;4.416;2024-01-25T12:48:09;11.60;99.90
25753;DHT22;13600;50.816;4.416;2024-01-25T12:50:35;11.80;99.90
25753;DHT22;13600;50.816;4.416;2024-01-25T12:53:01;11.70;99.90
25753;DHT22;13600;50.816;4.416;2024-01-25T12:55:28;11.70;99.90
25753;DHT22;13600;50.816;4.416;2024-01-25T12:57:54;11.70;99.90
25753;DHT22;13600;50.816;4.416;2024-01-25T13:00:21;11.80;99.90
25753;DHT22;13600;50.816;4.416;2024-01-25T13:02:47;11.80;99.90
25753;DHT22;13600;50.816;4.416;2024-01-25T13:05:13;11.90;99.90
25753;DHT22;13600;50.816;4.416;2024-01-25T13:07:39;11.90;99.90
25753;DHT22;13600;50.816;4.416;2024-01-25T13:10:06;11.90;99.90
25753;DHT22;13600;50.816;4.416;2024-01-25T13:12:32;12.00;99.90
25753;DHT22;13600;50.816;4.416;2024-01-25T13:14:57;11.90;99.90
25753;DHT22;13600;50.816;4.416;2024-01-25T13:17:23;11.80;99.90
25753;DHT22;13600;50.816;4.416;2024-01-25T13:19:50;11.80;99.90
25753;DHT22;13600;50.816;4.416;2024-01-25T13:22:16;11.90;99.90
25753;DHT22;13600;50.816;4.416;2024-01-25T13:24:43;11.90;99.90
25753;DHT22;13600;50.816;4.416;2024-01-25T13:27:09;11.80;99.90
25753;DHT22;13600;50.816;4.416;2024-01-25T13:29:36;11.90;99.90
25753;DHT22;13600;50.816;4.416;2024-01-25T13:32:01;11.80;99.90
25753;DHT22;13600;50.816;4.416;2024-01-25T13:34:27;11.90;99.90
25753;DHT22;13600;50.816;4.416;2024-01-25T13:36:53;12.00;99.90
25753;DHT22;13600;50.816;4.416;2024-01-25T13:39:18;12.00;99.90
25753;DHT22;13600;50.816;4.416;2024-01-25T13:41:44;12.00;99.90
25753;DHT22;13600;50.816;4.416;2024-01-25T13:44:13;12.10;99.90
25753;DHT22;13600;50.816;4.416;2024-01-25T13:46:39;12.00;99.90
25753;DHT22;13600;50.816;4.416;2024-01-25T13:49:04;12.00;99.90
25753;DHT22;13600;50.816;4.416;2024-01-25T13:51:30;12.00;99.90
25753;DHT22;13600;50.816;4.416;2024-01-25T13:53:56;12.10;99.90
25753;DHT22;13600;50.816;4.416;2024-01-25T13:56:22;12.10;99.90
25753;DHT22;13600;50.816;4.416;2024-01-25T13:58:47;12.20;99.90
25753;DHT22;13600;50.816;4.416;2024-01-25T14:01:13;12.30;99.90
25753;DHT22;13600;50.816;4.416;2024-01-25T14:03:39;12.30;99.90
25753;DHT22;13600;50.816;4.416;2024-01-25T14:06:05;12.40;99.90
25753;DHT22;13600;50.816;4.416;2024-01-25T14:08:31;12.30;99.90
25753;DHT22;13600;50.816;4.416;2024-01-25T14:10:57;12.50;99.90
25753;DHT22;13600;50.816;4.416;2024-01-25T14:13:23;12.50;99.90
25753;DHT22;13600;50.816;4.416;2024-01-25T14:15:51;12.40;99.90
25753;DHT22;13600;50.816;4.416;2024-01-25T14:18:16;12.30;99.90
25753;DHT22;13600;50.816;4.416;2024-01-25T14:20:42;12.30;99.90
25753;DHT22;13600;50.816;4.416;2024-01-25T14:23:08;12.20;99.90
25753;DHT22;13600;50.816;4.416;2024-01-25T14:25:39;12.10;99.90
25753;DHT22;13600;50.816;4.416;2024-01-25T14:28:05;12.20;99.90
25753;DHT22;13600;50.816;4.416;2024-01-25T14:30:30;12.30;99.90
25753;DHT22;13600;50.816;4.416;2024-01-25T14:32:56;12.30;99.90
25753;DHT22;13600;50.816;4.416;2024-01-25T14:35:22;12.30;99.90
25753;DHT22;13600;50.816;4.416;2024-01-25T14:37:54;12.20;99.90
25753;DHT22;13600;50.816;4.416;2024-01-25T14:40:23;12.10;99.90
25753;DHT22;13600;50.816;4.416;2024-01-25T14:42:49;12.10;99.90
25753;DHT22;13600;50.816;4.416;2024-01-25T14:45:15;12.20;99.90
25753;DHT22;13600;50.816;4.416;2024-01-25T14:47:40;12.10;99.90
25753;DHT22;13600;50.816;4.416;2024-01-25T14:50:06;12.10;99.90
25753;DHT22;13600;50.816;4.416;2024-01-25T14:52:32;12.10;99.90
25753;DHT22;13600;50.816;4.416;2024-01-25T14:55:02;12.20;99.90
25753;DHT22;13600;50.816;4.416;2024-01-25T14:57:28;12.00;99.90
25753;DHT22;13600;50.816;4.416;2024-01-25T14:59:53;11.80;99.90
25753;DHT22;13600;50.816;4.416;2024-01-25T15:02:19;11.70;99.90
25753;DHT22;13600;50.816;4.416;2024-01-25T15:04:45;11.80;99.90
25753;DHT22;13600;50.816;4.416;2024-01-25T15:07:10;11.90;99.90
25753;DHT22;13600;50.816;4.416;2024-01-25T15:09:36;12.00;99.90
25753;DHT22;13600;50.816;4.416;2024-01-25T15:12:02;12.00;99.90
25753;DHT22;13600;50.816;4.416;2024-01-25T15:14:27;11.80;99.90
25753;DHT22;13600;50.816;4.416;2024-01-25T15:16:53;11.70;99.90
25753;DHT22;13600;50.816;4.416;2024-01-25T15:19:18;11.70;99.90
25753;DHT22;13600;50.816;4.416;2024-01-25T15:21:45;11.80;99.90
25753;DHT22;13600;50.816;4.416;2024-01-25T15:24:11;11.70;99.90
25753;DHT22;13600;50.816;4.416;2024-01-25T15:26:43;11.80;99.90
25753;DHT22;13600;50.816;4.416;2024-01-25T15:29:09;11.60;99.90
25753;DHT22;13600;50.816;4.416;2024-01-25T15:31:35;11.60;99.90
25753;DHT22;13600;50.816;4.416;2024-01-25T15:34:00;11.60;99.90
25753;DHT22;13600;50.816;4.416;2024-01-25T15:36:26;11.70;99.90